Time;durP1;ratioP1;P1;durP2;ratioP2;P2;SDS_P1;SDS_P2;PMS_P1;PMS_P2;Temp;Humidity;BMP_temperature;BMP_pressure;BME280_temperature;BME280_humidity;BME280_pressure;Samples;Min_cycle;Max_cycle;Signal;HPM_P1;HPM_P2
2023/03/10 00:00:04;;;;;;;7.65;2.20;;;;;;;;;;7328075;19;20313;-79
2023/03/10 00:02:31;;;;;;;5.85;1.98;;;;;;;;;;7366482;19;20007;-77
2023/03/10 00:04:56;;;;;;;5.72;2.53;;;;;;;;;;7357331;19;20347;-79
2023/03/10 00:07:22;;;;;;;4.67;2.00;;;;;;;;;;7361474;19;20002;-80
2023/03/10 00:09:47;;;;;;;6.20;1.98;;;;;;;;;;7370634;19;20289;-80
2023/03/10 00:12:13;;;;;;;5.68;1.92;;;;;;;;;;7372143;19;20052;-79
2023/03/10 00:14:38;;;;;;;8.48;2.17;;;;;;;;;;7366368;19;20010;-78
2023/03/10 00:17:03;;;;;;;5.13;1.88;;;;;;;;;;7365265;19;20043;-79
2023/03/10 00:19:29;;;;;;;9.73;2.35;;;;;;;;;;7374521;19;20014;-79
2023/03/10 00:21:54;;;;;;;5.70;2.25;;;;;;;;;;7362896;19;20640;-79
2023/03/10 00:24:19;;;;;;;5.28;2.13;;;;;;;;;;7371112;19;20024;-78
2023/03/10 00:26:45;;;;;;;4.20;1.80;;;;;;;;;;7355825;19;20002;-81
2023/03/10 00:29:11;;;;;;;4.57;1.75;;;;;;;;;;7371517;19;20002;-82
2023/03/10 00:31:36;;;;;;;6.43;1.80;;;;;;;;;;7352435;19;20017;-81
2023/03/10 00:34:02;;;;;;;4.97;1.65;;;;;;;;;;7357429;19;22109;-82
2023/03/10 00:36:28;;;;;;;5.07;2.00;;;;;;;;;;7332135;19;20083;-82
2023/03/10 00:38:54;;;;;;;6.78;1.90;;;;;;;;;;7364737;19;20018;-77
2023/03/10 00:41:22;;;;;;;6.00;2.00;;;;;;;;;;7364287;19;20010;-80
2023/03/10 00:43:47;;;;;;;5.25;1.95;;;;;;;;;;7365565;19;20002;-82
2023/03/10 00:46:12;;;;;;;4.80;2.00;;;;;;;;;;7355540;19;20047;-79
2023/03/10 00:48:38;;;;;;;7.70;1.98;;;;;;;;;;7373584;19;20530;-79
2023/03/10 00:51:03;;;;;;;8.40;2.75;;;;;;;;;;7347351;19;22727;-83
2023/03/10 00:53:29;;;;;;;6.38;2.13;;;;;;;;;;7363537;19;20011;-83
2023/03/10 00:55:58;;;;;;;5.22;2.20;;;;;;;;;;7368983;19;20418;-79
2023/03/10 00:58:23;;;;;;;6.72;3.28;;;;;;;;;;7373319;19;20018;-79
2023/03/10 01:00:48;;;;;;;5.97;2.30;;;;;;;;;;7349847;19;20018;-80
2023/03/10 01:03:13;;;;;;;10.55;2.63;;;;;;;;;;7370940;19;20015;-79
2023/03/10 01:05:39;;;;;;;8.45;3.10;;;;;;;;;;7332657;19;20011;-82
2023/03/10 01:08:04;;;;;;;9.97;2.87;;;;;;;;;;7359591;19;20657;-81
2023/03/10 01:10:29;;;;;;;12.45;3.75;;;;;;;;;;7356812;19;20263;-82
2023/03/10 01:12:54;;;;;;;9.63;3.38;;;;;;;;;;7348925;19;20026;-83
2023/03/10 01:15:19;;;;;;;8.47;3.50;;;;;;;;;;7361255;19;20279;-81
2023/03/10 01:17:45;;;;;;;10.50;3.43;;;;;;;;;;7366505;19;20735;-79
2023/03/10 01:20:13;;;;;;;10.90;3.38;;;;;;;;;;7355494;19;20349;-80
2023/03/10 01:22:39;;;;;;;12.52;3.40;;;;;;;;;;7365558;19;20491;-79
2023/03/10 01:25:04;;;;;;;13.25;2.97;;;;;;;;;;7360731;19;20020;-80
2023/03/10 01:27:29;;;;;;;10.48;3.03;;;;;;;;;;7369839;19;20040;-81
2023/03/10 01:29:54;;;;;;;9.57;3.00;;;;;;;;;;7351469;19;20014;-77
2023/03/10 01:32:19;;;;;;;6.73;2.60;;;;;;;;;;7368081;19;20283;-78
2023/03/10 01:34:45;;;;;;;9.10;3.00;;;;;;;;;;7349573;19;20320;-80
2023/03/10 01:37:10;;;;;;;9.32;3.60;;;;;;;;;;7354087;19;20334;-78
2023/03/10 01:39:36;;;;;;;14.90;3.28;;;;;;;;;;7371378;19;20006;-77
2023/03/10 01:42:01;;;;;;;9.57;3.08;;;;;;;;;;7361401;19;20013;-77
2023/03/10 01:44:26;;;;;;;16.60;4.03;;;;;;;;;;7362278;19;20499;-77
2023/03/10 01:46:52;;;;;;;9.97;3.07;;;;;;;;;;7367032;19;20007;-79
2023/03/10 01:49:21;;;;;;;14.20;3.22;;;;;;;;;;7370722;19;21658;-78
2023/03/10 01:51:49;;;;;;;14.43;3.00;;;;;;;;;;7357564;19;20028;-78
2023/03/10 01:54:17;;;;;;;19.55;3.55;;;;;;;;;;7369489;19;20081;-78
2023/03/10 01:56:42;;;;;;;18.80;3.85;;;;;;;;;;7366340;19;20692;-78
2023/03/10 01:59:08;;;;;;;17.73;3.45;;;;;;;;;;7365901;19;20085;-80
2023/03/10 02:01:33;;;;;;;13.90;3.80;;;;;;;;;;7365910;19;20082;-78
2023/03/10 02:04:00;;;;;;;16.88;3.25;;;;;;;;;;7367428;19;20078;-79
2023/03/10 02:06:26;;;;;;;22.15;3.35;;;;;;;;;;7234848;19;22610;-81
2023/03/10 02:08:53;;;;;;;12.57;3.30;;;;;;;;;;7195813;19;20021;-81
2023/03/10 02:11:19;;;;;;;14.00;3.38;;;;;;;;;;7192891;19;20017;-81
2023/03/10 02:13:44;;;;;;;13.75;3.95;;;;;;;;;;7208154;19;20015;-82
2023/03/10 02:16:09;;;;;;;21.70;3.57;;;;;;;;;;7189838;19;20009;-79
2023/03/10 02:18:34;;;;;;;18.35;3.47;;;;;;;;;;7214328;19;20303;-81
2023/03/10 02:21:03;;;;;;;18.05;3.45;;;;;;;;;;7206584;19;20719;-81
2023/03/10 02:23:38;;;;;;;17.67;3.80;;;;;;;;;;7209735;19;20021;-81
2023/03/10 02:26:22;;;;;;;16.83;3.67;;;;;;;;;;7210594;19;20018;-81
2023/03/10 02:28:49;;;;;;;12.32;3.28;;;;;;;;;;7201332;19;20742;-81
2023/03/10 02:31:15;;;;;;;17.25;3.17;;;;;;;;;;7204996;19;20624;-83
2023/03/10 02:33:43;;;;;;;17.10;2.85;;;;;;;;;;7212904;19;20026;-83
2023/03/10 02:36:19;;;;;;;19.38;3.33;;;;;;;;;;7205431;19;20018;-84
2023/03/10 02:38:44;;;;;;;21.73;3.85;;;;;;;;;;7209757;19;20534;-83
2023/03/10 02:41:15;;;;;;;14.88;2.78;;;;;;;;;;7224125;19;20811;-80
2023/03/10 02:43:41;;;;;;;16.02;2.90;;;;;;;;;;7213833;19;20034;-81
2023/03/10 02:46:07;;;;;;;19.00;2.88;;;;;;;;;;7211314;19;20096;-81
2023/03/10 02:48:34;;;;;;;15.10;2.85;;;;;;;;;;7214713;19;20713;-80
2023/03/10 02:51:00;;;;;;;13.25;2.72;;;;;;;;;;7204367;19;21574;-80
2023/03/10 02:53:27;;;;;;;19.42;3.22;;;;;;;;;;7213368;19;20301;-81
2023/03/10 02:55:52;;;;;;;13.68;2.80;;;;;;;;;;7217310;19;20497;-82
2023/03/10 02:58:17;;;;;;;16.48;2.97;;;;;;;;;;7213547;19;20770;-82
2023/03/10 03:00:44;;;;;;;10.05;2.22;;;;;;;;;;7208408;19;20628;-81
2023/03/10 03:03:10;;;;;;;18.08;4.20;;;;;;;;;;7207966;19;20308;-81
2023/03/10 03:05:35;;;;;;;11.95;3.00;;;;;;;;;;7268944;19;20013;-76
2023/03/10 03:08:01;;;;;;;17.83;3.60;;;;;;;;;;7356948;19;20035;-79
2023/03/10 03:10:26;;;;;;;23.75;3.95;;;;;;;;;;7367408;19;20940;-81
2023/03/10 03:12:51;;;;;;;17.60;3.38;;;;;;;;;;7364295;19;20039;-84
2023/03/10 03:15:17;;;;;;;13.52;4.07;;;;;;;;;;7365280;19;20846;-79
2023/03/10 03:17:42;;;;;;;21.75;3.97;;;;;;;;;;7375434;19;20043;-81
2023/03/10 03:20:13;;;;;;;16.83;2.83;;;;;;;;;;7362188;19;20063;-80
2023/03/10 03:22:39;;;;;;;21.77;4.32;;;;;;;;;;7376198;19;20287;-81
2023/03/10 03:25:04;;;;;;;18.42;3.13;;;;;;;;;;7373022;19;20014;-80
2023/03/10 03:27:29;;;;;;;13.05;2.75;;;;;;;;;;7378475;19;20479;-80
2023/03/10 03:29:54;;;;;;;13.17;2.43;;;;;;;;;;7364001;19;20014;-83
2023/03/10 03:32:19;;;;;;;16.83;2.80;;;;;;;;;;7374306;19;20354;-81
2023/03/10 03:34:45;;;;;;;18.93;2.90;;;;;;;;;;7366506;19;20271;-82
2023/03/10 03:37:10;;;;;;;14.07;4.05;;;;;;;;;;7372697;19;20283;-79
2023/03/10 03:39:35;;;;;;;23.02;3.35;;;;;;;;;;7378057;19;20270;-79
2023/03/10 03:42:00;;;;;;;16.73;2.80;;;;;;;;;;7372565;19;20271;-80
2023/03/10 03:44:25;;;;;;;18.20;2.30;;;;;;;;;;7365785;19;20557;-76
2023/03/10 03:46:50;;;;;;;13.90;2.50;;;;;;;;;;7375820;19;20626;-79
2023/03/10 03:49:16;;;;;;;14.37;2.37;;;;;;;;;;7359070;19;20267;-80
2023/03/10 03:51:41;;;;;;;11.77;2.03;;;;;;;;;;7368941;19;20276;-79
2023/03/10 03:54:06;;;;;;;14.80;2.40;;;;;;;;;;7371753;19;20010;-79
2023/03/10 03:56:31;;;;;;;14.23;2.20;;;;;;;;;;7376014;19;20307;-81
2023/03/10 03:58:56;;;;;;;13.27;2.13;;;;;;;;;;7368189;19;20267;-81
2023/03/10 04:01:21;;;;;;;18.75;3.33;;;;;;;;;;7364545;19;20287;-77
2023/03/10 04:03:47;;;;;;;14.93;2.73;;;;;;;;;;7374244;19;20455;-80
2023/03/10 04:06:12;;;;;;;21.15;2.50;;;;;;;;;;7361839;19;20259;-77
2023/03/10 04:08:37;;;;;;;20.05;2.60;;;;;;;;;;7373206;19;20357;-79
2023/03/10 04:11:02;;;;;;;15.32;2.58;;;;;;;;;;7368867;19;20586;-77
2023/03/10 04:13:27;;;;;;;13.30;2.40;;;;;;;;;;7369261;19;20372;-78
2023/03/10 04:15:57;;;;;;;15.52;3.40;;;;;;;;;;7349500;19;20192;-77
2023/03/10 04:18:22;;;;;;;20.85;3.63;;;;;;;;;;7371284;19;22021;-79
2023/03/10 04:20:47;;;;;;;16.27;3.53;;;;;;;;;;7363932;19;20007;-81
2023/03/10 04:23:14;;;;;;;16.53;4.90;;;;;;;;;;7370911;19;20018;-79
2023/03/10 04:25:40;;;;;;;20.05;5.78;;;;;;;;;;7372231;19;20267;-81
2023/03/10 04:28:05;;;;;;;33.42;7.10;;;;;;;;;;7370254;19;20015;-80
2023/03/10 04:30:30;;;;;;;27.00;5.10;;;;;;;;;;7363350;19;20298;-81
2023/03/10 04:32:56;;;;;;;24.15;4.68;;;;;;;;;;7359439;19;20343;-83
2023/03/10 04:35:21;;;;;;;18.75;4.93;;;;;;;;;;7366380;19;20086;-80
2023/03/10 04:37:46;;;;;;;15.15;4.75;;;;;;;;;;7374038;19;20558;-78
2023/03/10 04:40:12;;;;;;;16.73;5.23;;;;;;;;;;7370877;19;20365;-80
2023/03/10 04:42:37;;;;;;;18.08;5.55;;;;;;;;;;7375489;19;20331;-78
2023/03/10 04:45:02;;;;;;;20.63;5.87;;;;;;;;;;7359580;19;20030;-79
2023/03/10 04:47:28;;;;;;;25.75;5.90;;;;;;;;;;7371574;19;20288;-78
2023/03/10 04:49:53;;;;;;;28.53;5.53;;;;;;;;;;7367942;19;20011;-78
2023/03/10 04:52:18;;;;;;;22.53;5.97;;;;;;;;;;7345814;19;20271;-80
2023/03/10 04:54:43;;;;;;;33.72;4.95;;;;;;;;;;7348281;19;20260;-79
2023/03/10 04:57:09;;;;;;;19.52;4.45;;;;;;;;;;7371939;19;20010;-80
2023/03/10 04:59:34;;;;;;;20.08;5.03;;;;;;;;;;7371696;19;20107;-78
2023/03/10 05:01:59;;;;;;;22.73;5.65;;;;;;;;;;7350665;19;20002;-82
2023/03/10 05:04:24;;;;;;;25.60;3.97;;;;;;;;;;7366313;19;20003;-78
2023/03/10 05:06:50;;;;;;;24.02;4.00;;;;;;;;;;7367596;19;20015;-78
2023/03/10 05:09:16;;;;;;;20.33;4.50;;;;;;;;;;7365367;19;20007;-78
2023/03/10 05:11:41;;;;;;;20.13;3.83;;;;;;;;;;7347077;19;20010;-78
2023/03/10 05:14:06;;;;;;;21.33;4.07;;;;;;;;;;7360434;19;20018;-81
2023/03/10 05:16:31;;;;;;;20.02;4.00;;;;;;;;;;7367055;19;20010;-80
2023/03/10 05:18:57;;;;;;;18.30;4.43;;;;;;;;;;7363404;19;20029;-82
2023/03/10 05:21:22;;;;;;;20.92;4.97;;;;;;;;;;7363396;19;20290;-77
2023/03/10 05:23:47;;;;;;;22.15;4.50;;;;;;;;;;7371110;19;20052;-78
2023/03/10 05:26:13;;;;;;;24.55;5.07;;;;;;;;;;7359028;19;20010;-78
2023/03/10 05:28:38;;;;;;;22.50;5.53;;;;;;;;;;7356147;19;19999;-82
2023/03/10 05:31:08;;;;;;;23.60;5.97;;;;;;;;;;7338823;19;20357;-81
2023/03/10 05:33:33;;;;;;;25.00;7.07;;;;;;;;;;7364045;19;20279;-78
2023/03/10 05:35:58;;;;;;;27.60;5.75;;;;;;;;;;7362253;19;20480;-79
2023/03/10 05:38:23;;;;;;;21.88;5.40;;;;;;;;;;7358791;19;20271;-80
2023/03/10 05:40:48;;;;;;;27.52;5.07;;;;;;;;;;7363914;19;20009;-78
2023/03/10 05:43:14;;;;;;;21.67;5.47;;;;;;;;;;7367080;19;20010;-78
2023/03/10 05:45:39;;;;;;;22.17;5.80;;;;;;;;;;7346034;19;20570;-78
2023/03/10 05:48:04;;;;;;;17.05;4.38;;;;;;;;;;7362335;19;20322;-81
2023/03/10 05:50:32;;;;;;;27.98;6.15;;;;;;;;;;7369174;19;20024;-78
2023/03/10 05:52:57;;;;;;;28.63;4.65;;;;;;;;;;7366645;19;20013;-77
2023/03/10 05:55:23;;;;;;;24.10;5.07;;;;;;;;;;7369448;19;20006;-78
2023/03/10 05:57:49;;;;;;;21.00;5.43;;;;;;;;;;7357237;19;20810;-81
2023/03/10 06:00:14;;;;;;;29.13;4.53;;;;;;;;;;7353391;19;20013;-80
2023/03/10 06:02:40;;;;;;;24.35;5.45;;;;;;;;;;7364953;19;20034;-77
2023/03/10 06:05:06;;;;;;;21.75;3.83;;;;;;;;;;7359461;19;20374;-82
2023/03/10 06:07:31;;;;;;;23.23;4.40;;;;;;;;;;7373370;19;20018;-81
2023/03/10 06:09:56;;;;;;;13.15;4.00;;;;;;;;;;7373585;19;20017;-78
2023/03/10 06:12:22;;;;;;;20.60;4.60;;;;;;;;;;7359113;19;20002;-82
2023/03/10 06:14:47;;;;;;;17.52;3.33;;;;;;;;;;7351741;19;20074;-80
2023/03/10 06:17:12;;;;;;;15.98;3.83;;;;;;;;;;7366893;19;20034;-78
2023/03/10 06:19:37;;;;;;;19.50;4.22;;;;;;;;;;7371937;19;20002;-81
2023/03/10 06:22:03;;;;;;;19.10;5.20;;;;;;;;;;7363056;19;20050;-79
2023/03/10 06:24:28;;;;;;;16.75;3.97;;;;;;;;;;7374276;19;20271;-77
2023/03/10 06:26:53;;;;;;;18.55;4.68;;;;;;;;;;7369667;19;20089;-78
2023/03/10 06:29:18;;;;;;;26.80;4.13;;;;;;;;;;7360349;19;20312;-80
2023/03/10 06:31:44;;;;;;;21.02;4.15;;;;;;;;;;7366926;19;20323;-79
2023/03/10 06:34:09;;;;;;;25.00;3.93;;;;;;;;;;7369645;19;20473;-82
2023/03/10 06:36:36;;;;;;;15.70;4.17;;;;;;;;;;7358857;19;20267;-78
2023/03/10 06:39:02;;;;;;;17.02;3.50;;;;;;;;;;7360408;19;20264;-80
2023/03/10 06:41:27;;;;;;;23.73;4.10;;;;;;;;;;7359961;19;20352;-79
2023/03/10 06:43:52;;;;;;;15.45;3.47;;;;;;;;;;7364530;19;20013;-79
2023/03/10 06:46:17;;;;;;;23.08;3.50;;;;;;;;;;7346398;19;20006;-80
2023/03/10 06:48:42;;;;;;;19.23;3.50;;;;;;;;;;7361606;19;20047;-82
2023/03/10 06:51:09;;;;;;;19.50;3.38;;;;;;;;;;7336038;19;20053;-82
2023/03/10 06:53:34;;;;;;;14.35;3.33;;;;;;;;;;7321404;19;20275;-80
2023/03/10 06:56:01;;;;;;;18.33;3.20;;;;;;;;;;7358075;19;20018;-78
2023/03/10 06:58:26;;;;;;;23.55;3.38;;;;;;;;;;7354567;19;20011;-79
2023/03/10 07:00:52;;;;;;;25.67;3.90;;;;;;;;;;7334976;19;21106;-79
2023/03/10 07:03:17;;;;;;;21.05;4.72;;;;;;;;;;7360754;19;20007;-80
2023/03/10 07:05:42;;;;;;;24.63;3.70;;;;;;;;;;7355317;19;20021;-80
2023/03/10 07:08:07;;;;;;;17.92;3.20;;;;;;;;;;7366340;19;20010;-82
2023/03/10 07:10:32;;;;;;;28.93;4.10;;;;;;;;;;7361367;19;20267;-80
2023/03/10 07:12:58;;;;;;;24.20;5.70;;;;;;;;;;7363805;19;20270;-82
2023/03/10 07:15:24;;;;;;;20.40;3.47;;;;;;;;;;7332815;19;20283;-82
2023/03/10 07:17:49;;;;;;;13.05;2.75;;;;;;;;;;7352448;19;20255;-79
2023/03/10 07:20:14;;;;;;;22.77;3.03;;;;;;;;;;7357567;19;20628;-79
2023/03/10 07:22:40;;;;;;;20.30;3.50;;;;;;;;;;7352395;19;20015;-79
2023/03/10 07:25:06;;;;;;;22.40;3.38;;;;;;;;;;7358797;19;20297;-80
2023/03/10 07:27:31;;;;;;;15.25;2.80;;;;;;;;;;7353836;19;20039;-80
2023/03/10 07:29:56;;;;;;;15.45;2.92;;;;;;;;;;7364255;19;20790;-81
2023/03/10 07:32:21;;;;;;;19.35;3.05;;;;;;;;;;7340538;19;20283;-84
2023/03/10 07:34:49;;;;;;;15.07;2.33;;;;;;;;;;7340638;19;20013;-80
2023/03/10 07:37:14;;;;;;;14.75;2.35;;;;;;;;;;7362035;19;20340;-84
2023/03/10 07:39:39;;;;;;;12.33;2.63;;;;;;;;;;7365176;19;20078;-82
2023/03/10 07:42:04;;;;;;;17.10;2.33;;;;;;;;;;7367398;19;20243;-85
2023/03/10 07:44:30;;;;;;;11.45;2.35;;;;;;;;;;7361134;19;20453;-83
2023/03/10 07:46:55;;;;;;;12.33;1.97;;;;;;;;;;7363452;19;20007;-82
2023/03/10 07:49:20;;;;;;;13.00;2.03;;;;;;;;;;7366518;19;20243;-81
2023/03/10 07:51:45;;;;;;;11.73;2.10;;;;;;;;;;7363326;19;20838;-81
2023/03/10 07:54:11;;;;;;;13.23;1.80;;;;;;;;;;7364537;19;20043;-83
2023/03/10 07:56:36;;;;;;;8.10;1.60;;;;;;;;;;7375984;19;20267;-84
2023/03/10 07:59:01;;;;;;;17.37;2.60;;;;;;;;;;7375000;19;20007;-83
2023/03/10 08:01:26;;;;;;;11.05;2.63;;;;;;;;;;7355558;19;20284;-80
2023/03/10 08:03:52;;;;;;;11.95;2.30;;;;;;;;;;7378775;19;20007;-81
2023/03/10 08:06:22;;;;;;;18.08;2.28;;;;;;;;;;7366816;19;20006;-81
2023/03/10 08:08:47;;;;;;;11.25;2.05;;;;;;;;;;7378844;19;20814;-81
2023/03/10 08:11:12;;;;;;;18.80;3.20;;;;;;;;;;7375675;19;20006;-82
2023/03/10 08:13:37;;;;;;;14.57;2.00;;;;;;;;;;7377831;19;20017;-82
2023/03/10 08:16:03;;;;;;;19.95;2.47;;;;;;;;;;7366571;19;21245;-80
2023/03/10 08:18:28;;;;;;;19.17;2.97;;;;;;;;;;7372497;19;20020;-81
2023/03/10 08:20:54;;;;;;;20.17;2.97;;;;;;;;;;7373207;19;20652;-80
2023/03/10 08:23:19;;;;;;;13.90;2.95;;;;;;;;;;7377202;19;20039;-80
2023/03/10 08:25:44;;;;;;;14.03;2.27;;;;;;;;;;7379760;19;20040;-81
2023/03/10 08:28:09;;;;;;;16.48;2.45;;;;;;;;;;7377283;19;20800;-81
2023/03/10 08:30:37;;;;;;;9.77;1.52;;;;;;;;;;7366562;19;20286;-80
2023/03/10 08:33:02;;;;;;;13.40;2.13;;;;;;;;;;7378577;19;20535;-80
2023/03/10 08:35:27;;;;;;;13.00;2.20;;;;;;;;;;7369532;19;20026;-80
2023/03/10 08:37:52;;;;;;;16.95;3.13;;;;;;;;;;7380860;19;20010;-80
2023/03/10 08:40:17;;;;;;;14.63;1.98;;;;;;;;;;7374406;19;20376;-79
2023/03/10 08:42:43;;;;;;;13.43;2.55;;;;;;;;;;7379520;19;20042;-80
2023/03/10 08:45:08;;;;;;;13.27;1.90;;;;;;;;;;7366820;19;20027;-81
2023/03/10 08:47:33;;;;;;;13.48;2.33;;;;;;;;;;7377177;19;20054;-79
2023/03/10 08:49:59;;;;;;;10.32;2.00;;;;;;;;;;7371089;19;20037;-79
2023/03/10 08:52:24;;;;;;;11.73;1.92;;;;;;;;;;7371539;19;20007;-79
2023/03/10 08:54:49;;;;;;;10.15;1.55;;;;;;;;;;7371322;19;20012;-81
2023/03/10 08:57:14;;;;;;;9.80;1.75;;;;;;;;;;7374690;19;20273;-80
2023/03/10 08:59:39;;;;;;;10.93;2.10;;;;;;;;;;7370292;19;20058;-79
2023/03/10 09:02:04;;;;;;;14.83;2.30;;;;;;;;;;7365755;19;20946;-81
2023/03/10 09:04:30;;;;;;;17.83;2.77;;;;;;;;;;7374453;19;20265;-78
2023/03/10 09:06:55;;;;;;;11.55;2.00;;;;;;;;;;7370636;19;20275;-82
2023/03/10 09:09:20;;;;;;;13.57;1.93;;;;;;;;;;7372806;19;20977;-78
2023/03/10 09:11:45;;;;;;;12.03;2.77;;;;;;;;;;7378321;19;20260;-79
2023/03/10 09:14:11;;;;;;;9.73;1.80;;;;;;;;;;7361352;19;20255;-84
2023/03/10 09:16:38;;;;;;;10.70;1.88;;;;;;;;;;7368938;19;20999;-79
2023/03/10 09:19:03;;;;;;;9.07;2.50;;;;;;;;;;7370249;19;20017;-79
2023/03/10 09:21:30;;;;;;;10.13;1.63;;;;;;;;;;7364099;19;20014;-79
2023/03/10 09:23:55;;;;;;;8.10;1.20;;;;;;;;;;7378012;19;20014;-80
2023/03/10 09:26:20;;;;;;;12.23;1.55;;;;;;;;;;7368973;19;20479;-79
2023/03/10 09:28:48;;;;;;;16.23;2.38;;;;;;;;;;7367459;19;20926;-82
2023/03/10 09:31:16;;;;;;;9.32;2.20;;;;;;;;;;7361979;19;20011;-80
2023/03/10 09:33:41;;;;;;;9.43;1.60;;;;;;;;;;7369391;19;20019;-78
2023/03/10 09:36:07;;;;;;;8.27;2.50;;;;;;;;;;7367681;19;20006;-79
2023/03/10 09:38:32;;;;;;;5.95;1.25;;;;;;;;;;7372835;19;20883;-80
2023/03/10 09:41:17;;;;;;;8.43;1.60;;;;;;;;;;7371931;19;20014;-78
2023/03/10 09:43:49;;;;;;;9.52;1.30;;;;;;;;;;7375595;19;20450;-79
2023/03/10 09:46:19;;;;;;;4.35;1.17;;;;;;;;;;7360414;19;20022;-81
2023/03/10 09:48:47;;;;;;;8.70;1.17;;;;;;;;;;7372380;19;20447;-80
2023/03/10 09:51:19;;;;;;;10.68;1.10;;;;;;;;;;7365812;19;20049;-81
2023/03/10 09:53:47;;;;;;;12.43;1.63;;;;;;;;;;7367690;19;20126;-80
2023/03/10 09:56:14;;;;;;;8.38;1.38;;;;;;;;;;7366824;19;20014;-81
2023/03/10 09:58:45;;;;;;;9.07;1.38;;;;;;;;;;7370353;19;20002;-80
2023/03/10 10:01:17;;;;;;;8.50;1.00;;;;;;;;;;7365521;19;20082;-79
2023/03/10 10:03:48;;;;;;;4.80;1.13;;;;;;;;;;7373698;19;20011;-78
2023/03/10 10:06:16;;;;;;;5.82;1.02;;;;;;;;;;7363803;19;20454;-79
2023/03/10 10:08:58;;;;;;;10.00;1.48;;;;;;;;;;7374803;19;20010;-79
2023/03/10 10:11:23;;;;;;;4.05;0.88;;;;;;;;;;7370538;19;20066;-80
2023/03/10 10:13:50;;;;;;;7.25;1.13;;;;;;;;;;7374147;19;20090;-79
2023/03/10 10:16:19;;;;;;;5.53;1.08;;;;;;;;;;7359172;19;20036;-79
2023/03/10 10:18:49;;;;;;;5.93;1.23;;;;;;;;;;7375669;19;20515;-78
2023/03/10 10:21:21;;;;;;;6.90;1.23;;;;;;;;;;7367261;19;20010;-80
2023/03/10 10:23:48;;;;;;;6.00;1.10;;;;;;;;;;7376461;19;20455;-79
2023/03/10 10:26:15;;;;;;;5.70;1.00;;;;;;;;;;7367808;19;20019;-79
2023/03/10 10:28:42;;;;;;;7.35;1.27;;;;;;;;;;7375384;19;20002;-80
2023/03/10 10:31:08;;;;;;;4.00;0.90;;;;;;;;;;7368742;19;20002;-79
2023/03/10 10:33:49;;;;;;;5.40;0.93;;;;;;;;;;7370289;19;20006;-79
2023/03/10 10:36:15;;;;;;;4.32;1.00;;;;;;;;;;7362062;19;20345;-80
2023/03/10 10:38:46;;;;;;;5.25;1.20;;;;;;;;;;7375296;19;20024;-79
2023/03/10 10:41:20;;;;;;;4.68;0.95;;;;;;;;;;7373460;19;20026;-81
2023/03/10 10:43:46;;;;;;;4.35;0.90;;;;;;;;;;7365470;19;20014;-78
2023/03/10 10:46:12;;;;;;;4.60;0.80;;;;;;;;;;7365948;19;20007;-78
2023/03/10 10:48:39;;;;;;;2.92;0.65;;;;;;;;;;7369440;19;20006;-79
2023/03/10 10:51:08;;;;;;;3.60;0.90;;;;;;;;;;7360933;19;20019;-80
2023/03/10 10:53:35;;;;;;;4.75;1.15;;;;;;;;;;7366402;19;20782;-80
2023/03/10 10:56:05;;;;;;;3.72;0.98;;;;;;;;;;7367145;19;20392;-80
2023/03/10 10:58:35;;;;;;;2.75;0.80;;;;;;;;;;7365115;19;20522;-80
2023/03/10 11:01:02;;;;;;;1.42;0.50;;;;;;;;;;7366199;19;20010;-79
2023/03/10 11:03:32;;;;;;;3.10;0.65;;;;;;;;;;7366446;19;20014;-78
2023/03/10 11:05:59;;;;;;;2.60;0.75;;;;;;;;;;7363740;19;20611;-78
2023/03/10 11:08:33;;;;;;;2.28;0.68;;;;;;;;;;7367272;19;20499;-80
2023/03/10 11:11:01;;;;;;;3.88;0.52;;;;;;;;;;7372162;19;20018;-81
2023/03/10 11:13:32;;;;;;;1.95;0.60;;;;;;;;;;7366327;19;20352;-80
2023/03/10 11:16:14;;;;;;;0.80;0.40;;;;;;;;;;7361509;19;20014;-79
2023/03/10 11:18:44;;;;;;;0.73;0.40;;;;;;;;;;7370735;19;20023;-78
2023/03/10 11:21:24;;;;;;;1.75;0.55;;;;;;;;;;7333723;19;20078;-82
2023/03/10 11:23:52;;;;;;;1.45;0.40;;;;;;;;;;7376236;19;20002;-78
2023/03/10 11:26:18;;;;;;;3.40;0.68;;;;;;;;;;7367333;19;20010;-78
2023/03/10 11:28:43;;;;;;;0.95;0.40;;;;;;;;;;7366609;19;20010;-80
2023/03/10 11:31:26;;;;;;;1.08;0.20;;;;;;;;;;7372306;19;20003;-77
2023/03/10 11:34:01;;;;;;;0.10;0.10;;;;;;;;;;7379276;19;20013;-78
2023/03/10 11:36:34;;;;;;;1.23;0.40;;;;;;;;;;7371632;19;20040;-78
2023/03/10 11:39:06;;;;;;;0.75;0.22;;;;;;;;;;7381266;19;20015;-80
2023/03/10 11:41:36;;;;;;;1.38;0.40;;;;;;;;;;7378444;19;20006;-77
2023/03/10 11:44:09;;;;;;;1.98;0.40;;;;;;;;;;7375723;19;20086;-83
2023/03/10 11:46:43;;;;;;;2.08;0.38;;;;;;;;;;7376567;19;20010;-79
2023/03/10 11:49:08;;;;;;;2.08;0.50;;;;;;;;;;7380188;19;20013;-79
2023/03/10 11:51:35;;;;;;;2.77;0.70;;;;;;;;;;7360455;19;20006;-80
2023/03/10 11:54:02;;;;;;;2.15;0.68;;;;;;;;;;7363097;19;20275;-78
2023/03/10 11:56:28;;;;;;;1.35;0.47;;;;;;;;;;7336642;19;20010;-82
2023/03/10 11:59:01;;;;;;;2.53;0.52;;;;;;;;;;7353458;19;20056;-79
2023/03/10 12:01:42;;;;;;;1.02;0.30;;;;;;;;;;7310778;19;20017;-78
2023/03/10 12:04:07;;;;;;;3.25;0.40;;;;;;;;;;7353464;19;20720;-78
2023/03/10 12:06:40;;;;;;;3.30;0.32;;;;;;;;;;7343245;19;20497;-78
2023/03/10 12:09:06;;;;;;;1.70;0.50;;;;;;;;;;7367214;19;21775;-79
2023/03/10 12:11:34;;;;;;;1.88;0.50;;;;;;;;;;7351146;19;20722;-79
2023/03/10 12:14:00;;;;;;;1.02;0.40;;;;;;;;;;7347857;19;20006;-81
2023/03/10 12:16:27;;;;;;;0.50;0.40;;;;;;;;;;7339294;19;20010;-80
2023/03/10 12:18:53;;;;;;;1.63;0.50;;;;;;;;;;7381310;19;20018;-78
2023/03/10 12:21:20;;;;;;;0.85;0.40;;;;;;;;;;7338910;19;20016;-83
2023/03/10 12:23:47;;;;;;;0.90;0.50;;;;;;;;;;7369806;19;20010;-79
2023/03/10 12:26:12;;;;;;;0.85;0.28;;;;;;;;;;7378175;19;20022;-79
2023/03/10 12:28:39;;;;;;;0.88;0.50;;;;;;;;;;7356659;19;20442;-78
2023/03/10 12:31:06;;;;;;;1.77;0.80;;;;;;;;;;7369081;19;20007;-80
2023/03/10 12:36:02;;;;;;;0.60;0.40;;;;;;;;;;7369750;19;20527;-79
2023/03/10 12:38:29;;;;;;;1.33;0.60;;;;;;;;;;7374264;19;20481;-78
2023/03/10 12:40:54;;;;;;;1.58;0.50;;;;;;;;;;7377418;19;20043;-78
2023/03/10 12:43:38;;;;;;;0.65;0.40;;;;;;;;;;7373678;19;20606;-84
2023/03/10 12:46:08;;;;;;;0.65;0.30;;;;;;;;;;7340778;19;20575;-79
2023/03/10 12:48:35;;;;;;;1.23;0.50;;;;;;;;;;7364105;19;20010;-80
2023/03/10 12:51:03;;;;;;;2.13;0.47;;;;;;;;;;7355406;19;20155;-79
2023/03/10 12:53:47;;;;;;;0.65;0.32;;;;;;;;;;7369813;19;20007;-79
2023/03/10 12:56:13;;;;;;;0.50;0.40;;;;;;;;;;7365648;19;20086;-80
2023/03/10 12:58:39;;;;;;;0.82;0.50;;;;;;;;;;7360570;19;20058;-82
2023/03/10 13:01:06;;;;;;;1.73;0.50;;;;;;;;;;7358455;19;20090;-79
2023/03/10 13:03:40;;;;;;;1.08;0.40;;;;;;;;;;7300714;19;20019;-80
2023/03/10 13:06:05;;;;;;;2.13;0.50;;;;;;;;;;7367565;19;20912;-80
2023/03/10 13:08:44;;;;;;;0.47;0.30;;;;;;;;;;7369473;19;20074;-79
2023/03/10 13:11:22;;;;;;;0.75;0.43;;;;;;;;;;7372985;19;20027;-81
2023/03/10 13:13:50;;;;;;;0.52;0.30;;;;;;;;;;7361836;19;20362;-82
2023/03/10 13:16:16;;;;;;;0.75;0.38;;;;;;;;;;7366144;19;20003;-79
2023/03/10 13:18:46;;;;;;;1.52;0.52;;;;;;;;;;7373600;19;20021;-81
2023/03/10 13:21:28;;;;;;;3.42;0.60;;;;;;;;;;7369160;19;20027;-79
2023/03/10 13:23:54;;;;;;;2.15;0.80;;;;;;;;;;7348860;19;20021;-80
2023/03/10 13:26:20;;;;;;;2.83;0.82;;;;;;;;;;7372197;19;20015;-79
2023/03/10 13:28:49;;;;;;;2.58;1.05;;;;;;;;;;7372580;19;20010;-80
2023/03/10 13:31:15;;;;;;;3.80;1.17;;;;;;;;;;7352040;19;20021;-82
2023/03/10 13:33:41;;;;;;;2.85;1.00;;;;;;;;;;7346433;19;20472;-81
2023/03/10 13:36:39;;;;;;;2.95;1.10;;;;;;;;;;7368119;19;20338;-80
2023/03/10 13:39:16;;;;;;;4.55;1.30;;;;;;;;;;7356360;19;20495;-82
2023/03/10 13:41:51;;;;;;;4.22;1.40;;;;;;;;;;7363238;19;20479;-80
2023/03/10 13:44:21;;;;;;;3.95;1.40;;;;;;;;;;7367730;19;20018;-80
2023/03/10 13:46:50;;;;;;;4.03;1.30;;;;;;;;;;7365790;19;20602;-81
2023/03/10 13:49:17;;;;;;;4.78;1.60;;;;;;;;;;7363221;19;20025;-79
2023/03/10 13:51:50;;;;;;;4.32;1.38;;;;;;;;;;7346899;19;20021;-80
2023/03/10 13:54:15;;;;;;;;;;;;;;;;;;7315763;19;20022;-84
2023/03/10 13:56:42;;;;;;;4.18;1.70;;;;;;;;;;7341295;19;19954;-80
2023/03/10 13:59:12;;;;;;;3.58;1.60;;;;;;;;;;7360524;19;20011;-83
2023/03/10 14:01:42;;;;;;;5.75;1.65;;;;;;;;;;7350884;19;20010;-79
2023/03/10 14:04:13;;;;;;;7.72;2.10;;;;;;;;;;7363694;19;20526;-79
2023/03/10 14:06:38;;;;;;;9.35;2.60;;;;;;;;;;7352853;19;20010;-80
2023/03/10 14:09:13;;;;;;;8.27;3.17;;;;;;;;;;7354166;19;20013;-78
2023/03/10 14:11:40;;;;;;;7.60;3.58;;;;;;;;;;7364491;19;20325;-79
2023/03/10 14:14:06;;;;;;;6.72;3.05;;;;;;;;;;7335823;19;20007;-83
2023/03/10 14:16:50;;;;;;;7.63;2.90;;;;;;;;;;7351248;19;20015;-81
2023/03/10 14:19:34;;;;;;;5.60;2.55;;;;;;;;;;7360204;19;20014;-83
2023/03/10 14:21:59;;;;;;;5.30;1.90;;;;;;;;;;7354758;19;20036;-79
2023/03/10 14:24:26;;;;;;;7.75;2.50;;;;;;;;;;7359632;19;20010;-84
2023/03/10 14:26:52;;;;;;;9.30;2.05;;;;;;;;;;7362952;19;20261;-84
2023/03/10 14:29:17;;;;;;;6.03;2.28;;;;;;;;;;7332343;19;20010;-82
2023/03/10 14:31:42;;;;;;;5.22;2.17;;;;;;;;;;7346055;19;20023;-80
2023/03/10 14:34:12;;;;;;;6.90;2.35;;;;;;;;;;7353295;19;20014;-79
2023/03/10 14:36:37;;;;;;;7.38;2.38;;;;;;;;;;7341903;19;20035;-83